Airport View

Enter AWOS ICAO identifier for current METAR.

ex. KFNL

KJHN 201255Z AUTO 27008KT 10SM CLR 04/M02 A2962 RMK AO2 T00421025

20 Nov 2019 12:58

Frequency: 124.175

Phone: 620-492-2100

Other Area AWOS: KULS - K3K3 - KHQG - KEHA

TAF KGCK 201120Z 2012/2112 15013KT P6SM OVC200 FM201500 18020G30KT P6SM OVC120 FM201800 20023G33KT P6SM VCSH OVC080 TEMPO 2018/2021 -SHRA FM210000 26015G25KT P6SM VCSH OVC080 FM210300 33020G30KT P6SM BKN050